Airfield :
LOGIN :

Register | Disclaimer

   EN    FR    IT 

 










Legend :    VFR   Marginal VFR   IFR   Intensive IFR   Very Intensive IFR
Visi :
Ceiling :
>= 8 km
>= 3000ft
5 to 8 km
1000 to 3000 ft
1500m to 5 km
500 to 1000 ft
800 to 1500m
200 to 500 ft
< 800m
< 200 ft
Symbols :   Thunderstorms  Fog  Heavy snow  Heavy precipitations  Wind > 20 kt
SIGMETs :     Misc.  Thunderstorms  Icing  Turbulence  Mountain Waves  Volcanic Ashes






- Airport Elevation : 1516 ft
- IATA code : AGB


EDMA - Augsburg

CURRENT METAR :
  • 110850Z 01006KT 340V040 9999 BKN008 BKN014 OVC033 15/13 Q1021

EXPIRED METARs :
  • 110820Z 35004KT 320V050 9999 -RA BKN006 BKN010 OVC028 15/13 Q1021
  • 110750Z 33006KT 9999 BKN006 OVC023 14/13 Q1021
  • 110720Z 34008KT 9999 FEW005 BKN007 OVC022 14/13 Q1021
  • 110650Z VRB08KT 9999 -RA BKN006 OVC020 14/14 Q1021
  • 110620Z 32006KT 9999 -RA FEW005 OVC018 15/14 Q1020

TAF TAF EDMA
Valid from the 11 at 09:00 until the 11 at 18:00 UTC


110800Z 1109/1118 35006KT 9999 SCT008 BKN025
TEMPO 1109/1111 BKN008



MET'MAP, your aeronautical weather chart ! - Copyright ORBIFLY December 2007 - Disclaimer

ORBIFLY MET'MAP TEAM :

Programming & Development : Alexandra Zaïnal
Concept & original design : Baudouin d'Aumeries
Assistance for programming : Marc-Olivier Méhu
Technical & hardware support : Manuel Goepfert

Contact : metmap@orbifly.com




SOURCES & CREDITS :

   NOAA